createdAt,value
2022-11-05T00:01:47.000Z,55.18
2022-11-05T00:04:32.189Z,54.52
2022-11-05T00:07:17.100Z,55.55
2022-11-05T00:10:02.018Z,55.92
2022-11-05T00:12:46.811Z,52.21
2022-11-05T00:15:31.874Z,52.19
2022-11-05T00:18:16.814Z,52.10
2022-11-05T00:21:02.009Z,54.38
2022-11-05T00:23:46.851Z,54.50
2022-11-05T00:26:31.613Z,54.87
2022-11-05T00:29:16.508Z,57.22
2022-11-05T00:32:01.500Z,55.93
2022-11-05T00:34:46.326Z,55.51
2022-11-05T00:37:31.181Z,55.88
2022-11-05T00:40:16.220Z,55.92
2022-11-05T00:43:01.204Z,55.80
2022-11-05T00:45:46.135Z,56.07
2022-11-05T00:48:31.100Z,57.17
2022-11-05T00:51:15.875Z,56.33
2022-11-05T00:54:00.920Z,54.06
2022-11-05T00:56:45.835Z,53.49
2022-11-05T00:59:30.685Z,51.16
2022-11-05T01:02:15.774Z,50.62
2022-11-05T01:05:01.147Z,51.13
2022-11-05T01:07:46.068Z,50.92
2022-11-05T01:10:30.992Z,51.08
2022-11-05T01:13:16.177Z,53.52
2022-11-05T01:16:01.255Z,55.02
2022-11-05T01:18:46.198Z,51.89
2022-11-05T01:21:30.985Z,54.91
2022-11-05T01:24:15.937Z,54.95
2022-11-05T01:27:00.711Z,54.54
2022-11-05T01:29:45.599Z,54.33
2022-11-05T01:32:30.577Z,55.13
2022-11-05T01:35:15.529Z,54.90
2022-11-05T01:38:00.293Z,54.46
2022-11-05T01:40:45.297Z,54.80
2022-11-05T01:43:30.281Z,54.57
2022-11-05T01:46:15.455Z,54.03
2022-11-05T01:49:03.278Z,53.02
2022-11-05T01:51:48.976Z,53.14
2022-11-05T01:54:34.309Z,55.78
2022-11-05T01:57:19.337Z,55.33
2022-11-05T02:00:04.254Z,55.93
2022-11-05T02:02:49.381Z,54.26
2022-11-05T02:05:34.840Z,53.13
2022-11-05T02:08:19.723Z,55.58
2022-11-05T02:11:04.625Z,53.27
2022-11-05T02:13:49.551Z,52.65
2022-11-05T02:16:34.392Z,53.19
2022-11-05T02:19:19.252Z,51.90
2022-11-05T02:22:04.264Z,53.09
2022-11-05T02:24:49.118Z,53.21
2022-11-05T02:27:34.075Z,51.98
2022-11-05T02:30:19.141Z,52.25
2022-11-05T02:33:03.977Z,51.92
2022-11-05T02:35:49.026Z,52.01
2022-11-05T02:38:33.840Z,52.25
2022-11-05T02:41:18.914Z,52.60
2022-11-05T02:44:03.826Z,52.97
2022-11-05T02:46:48.563Z,53.53
2022-11-05T02:49:33.363Z,53.97
2022-11-05T02:52:18.365Z,56.14
2022-11-05T02:55:03.417Z,56.24
2022-11-05T02:57:48.290Z,56.67
2022-11-05T03:00:33.197Z,57.44
2022-11-05T03:03:18.154Z,57.06
2022-11-05T03:06:03.080Z,57.30
2022-11-05T03:08:47.880Z,57.86
2022-11-05T03:11:32.879Z,57.82
2022-11-05T03:14:17.710Z,58.40
2022-11-05T03:17:02.619Z,57.72
2022-11-05T03:19:47.606Z,58.48
2022-11-05T03:22:32.621Z,58.87
2022-11-05T03:25:17.583Z,58.98
2022-11-05T03:28:02.426Z,58.15
2022-11-05T03:30:47.430Z,58.32
2022-11-05T03:33:32.224Z,58.94
2022-11-05T03:36:17.212Z,59.07
2022-11-05T03:39:02.154Z,57.20
2022-11-05T03:41:47.032Z,57.96
2022-11-05T03:44:31.974Z,58.02
2022-11-05T03:47:16.808Z,57.68
2022-11-05T03:50:01.777Z,58.84
2022-11-05T03:52:46.680Z,58.63
2022-11-05T03:55:31.665Z,60.71
2022-11-05T03:58:16.487Z,58.68
2022-11-05T04:01:01.419Z,61.18
2022-11-05T04:03:46.324Z,59.14
2022-11-05T04:06:31.221Z,58.98
2022-11-05T04:09:16.152Z,60.29
2022-11-05T04:12:01.088Z,58.27
2022-11-05T04:14:46.113Z,60.12
2022-11-05T04:17:30.895Z,61.05
2022-11-05T04:20:15.794Z,58.67
2022-11-05T04:23:00.491Z,60.34
2022-11-05T04:25:45.420Z,61.05
2022-11-05T04:28:30.242Z,60.81
2022-11-05T04:31:15.190Z,59.49
2022-11-05T04:34:00.150Z,56.66
2022-11-05T04:36:45.142Z,57.78
2022-11-05T04:39:30.082Z,58.40
2022-11-05T04:42:14.831Z,57.77
2022-11-05T04:44:59.818Z,58.63
2022-11-05T04:47:44.689Z,59.57
2022-11-05T04:50:29.625Z,58.53
2022-11-05T04:53:14.532Z,56.93
2022-11-05T04:55:59.756Z,57.00
2022-11-05T04:58:44.639Z,56.55
2022-11-05T05:01:29.722Z,58.24
2022-11-05T05:04:15.207Z,59.09
2022-11-05T05:07:00.458Z,57.20
2022-11-05T05:09:45.295Z,56.90
2022-11-05T05:12:30.061Z,56.22
2022-11-05T05:15:14.936Z,58.81
2022-11-05T05:17:59.698Z,56.62
2022-11-05T05:20:44.538Z,57.62
2022-11-05T05:23:29.381Z,55.72
2022-11-05T05:26:14.237Z,55.84
2022-11-05T05:28:59.278Z,55.89
2022-11-05T05:31:44.129Z,54.83
2022-11-05T05:34:29.118Z,54.13
2022-11-05T05:37:13.974Z,54.63
2022-11-05T05:39:58.920Z,54.80
2022-11-05T05:42:43.787Z,54.42
2022-11-05T05:45:28.989Z,54.25
2022-11-05T05:48:13.943Z,55.58
2022-11-05T05:50:58.894Z,55.21
2022-11-05T05:53:43.826Z,55.20
2022-11-05T05:56:28.799Z,56.20
2022-11-05T05:59:13.672Z,54.63
2022-11-05T06:01:58.570Z,55.22
2022-11-05T06:04:43.437Z,55.09
2022-11-05T06:07:30.740Z,55.39
2022-11-05T06:10:19.672Z,55.65
2022-11-05T06:13:04.517Z,55.58
2022-11-05T06:15:49.488Z,56.38
2022-11-05T06:18:34.495Z,56.48
2022-11-05T06:21:19.768Z,55.83
2022-11-05T06:24:04.498Z,57.83
2022-11-05T06:26:49.457Z,56.34
2022-11-05T06:29:34.244Z,56.63
2022-11-05T06:32:19.196Z,57.94
2022-11-05T06:35:04.072Z,58.75
2022-11-05T06:37:49.028Z,59.44
2022-11-05T06:40:33.994Z,59.45
2022-11-05T06:43:18.796Z,57.92
2022-11-05T06:46:03.792Z,58.42
2022-11-05T06:48:48.653Z,57.66
2022-11-05T06:51:33.550Z,58.13
2022-11-05T06:54:18.406Z,58.53
2022-11-05T06:57:03.510Z,58.16
2022-11-05T06:59:48.333Z,57.10
2022-11-05T07:02:33.261Z,57.29
2022-11-05T07:05:20.660Z,58.89
2022-11-05T07:08:05.752Z,59.37
2022-11-05T07:10:50.800Z,57.33
2022-11-05T07:13:35.707Z,56.80
2022-11-05T07:16:22.959Z,57.02
2022-11-05T07:19:08.200Z,57.98
2022-11-05T07:21:53.116Z,56.60
2022-11-05T07:24:38.046Z,56.52
2022-11-05T07:27:22.825Z,57.84
2022-11-05T07:30:07.837Z,58.48
2022-11-05T07:32:52.570Z,57.10
2022-11-05T07:35:37.542Z,57.10
2022-11-05T07:38:22.477Z,57.21
2022-11-05T07:41:07.331Z,58.07
2022-11-05T07:43:52.295Z,58.52
2022-11-05T07:46:37.115Z,57.39
2022-11-05T07:49:22.149Z,56.70
2022-11-05T07:52:07.001Z,57.58
2022-11-05T07:54:51.920Z,57.20
2022-11-05T07:57:36.784Z,56.84
2022-11-05T08:00:21.744Z,56.72
2022-11-05T08:03:09.539Z,56.64
2022-11-05T08:05:54.838Z,56.18
2022-11-05T08:08:39.781Z,57.09
2022-11-05T08:11:24.557Z,56.62
2022-11-05T08:14:09.515Z,57.74
2022-11-05T08:16:54.394Z,55.90
2022-11-05T08:19:39.206Z,56.11
2022-11-05T08:22:24.209Z,55.68
2022-11-05T08:25:09.013Z,55.50
2022-11-05T08:27:53.941Z,55.79
2022-11-05T08:30:38.839Z,56.19
2022-11-05T08:33:23.679Z,57.35
2022-11-05T08:36:08.547Z,56.92
2022-11-05T08:38:53.459Z,55.85
2022-11-05T08:41:41.417Z,56.80
2022-11-05T08:44:26.358Z,56.35
2022-11-05T08:47:11.063Z,55.56
2022-11-05T08:49:56.038Z,56.98
2022-11-05T08:52:40.842Z,54.85
2022-11-05T08:55:25.694Z,54.63
2022-11-05T08:58:10.732Z,54.86
2022-11-05T09:00:59.020Z,54.49
2022-11-05T09:03:47.009Z,55.58
2022-11-05T09:06:31.843Z,55.01
2022-11-05T09:09:16.885Z,56.41
2022-11-05T09:12:16.903Z,55.63
2022-11-05T09:15:01.786Z,55.80
2022-11-05T09:17:46.669Z,55.98
2022-11-05T09:20:31.664Z,55.96
2022-11-05T09:23:16.579Z,56.11
2022-11-05T09:26:01.521Z,57.32
2022-11-05T09:28:46.569Z,56.91
2022-11-05T09:31:31.467Z,57.36
2022-11-05T09:34:16.456Z,56.22
2022-11-05T09:37:01.213Z,54.81
2022-11-05T09:39:46.221Z,55.52
2022-11-05T09:42:31.051Z,54.18
2022-11-05T09:45:15.981Z,53.92
2022-11-05T09:48:00.781Z,53.85
2022-11-05T09:50:45.759Z,53.77
2022-11-05T09:53:30.680Z,54.58
2022-11-05T09:56:15.569Z,54.32
2022-11-05T09:59:00.599Z,52.80
2022-11-05T10:01:45.650Z,51.66
2022-11-05T10:04:31.059Z,51.29
2022-11-05T10:07:15.835Z,52.75
2022-11-05T10:10:00.815Z,53.75
2022-11-05T10:12:45.596Z,51.28
2022-11-05T10:15:30.556Z,50.62
2022-11-05T10:18:15.554Z,52.82
2022-11-05T10:21:00.376Z,50.86
2022-11-05T10:23:45.529Z,50.63
2022-11-05T10:26:30.242Z,50.05
2022-11-05T10:29:15.209Z,49.36
2022-11-05T10:31:59.983Z,49.48
2022-11-05T10:34:44.845Z,50.76
2022-11-05T10:37:29.840Z,49.99
2022-11-05T10:40:14.854Z,50.32
2022-11-05T10:42:59.753Z,52.29
2022-11-05T10:45:44.607Z,53.43
2022-11-05T10:48:29.610Z,55.64
2022-11-05T10:51:14.637Z,52.77
2022-11-05T10:54:02.173Z,53.23
2022-11-05T10:56:47.392Z,54.49
2022-11-05T10:59:32.384Z,54.75
2022-11-05T11:02:17.446Z,53.91
2022-11-05T11:05:02.240Z,50.87
2022-11-05T11:07:47.200Z,51.15
2022-11-05T11:10:32.037Z,51.81
2022-11-05T11:13:16.934Z,51.36
2022-11-05T11:16:01.620Z,51.45
2022-11-05T11:18:46.527Z,52.17
2022-11-05T11:21:31.658Z,53.06
2022-11-05T11:24:16.506Z,51.06
2022-11-05T11:27:01.698Z,51.27
2022-11-05T11:29:49.402Z,52.29
2022-11-05T11:32:34.563Z,52.88
2022-11-05T11:35:19.590Z,52.21
2022-11-05T11:38:04.620Z,52.75
2022-11-05T11:40:49.602Z,51.53
2022-11-05T11:43:34.336Z,51.55
2022-11-05T11:46:19.477Z,53.29
2022-11-05T11:49:04.436Z,52.37
2022-11-05T11:51:50.242Z,52.27
2022-11-05T11:54:35.535Z,50.37
2022-11-05T11:57:20.510Z,52.76
2022-11-05T12:00:09.696Z,53.29
2022-11-05T12:02:58.810Z,52.12
2022-11-05T12:05:46.673Z,51.82
2022-11-05T12:08:31.534Z,51.93
2022-11-05T12:11:16.609Z,54.24
2022-11-05T12:14:01.382Z,55.12
2022-11-05T12:16:46.331Z,53.12
2022-11-05T12:19:31.359Z,51.01
2022-11-05T12:22:16.160Z,51.62
2022-11-05T12:25:00.986Z,51.84
2022-11-05T12:27:45.919Z,52.11
2022-11-05T12:30:30.723Z,51.00
2022-11-05T12:33:16.247Z,51.15
2022-11-05T12:36:01.689Z,50.54
2022-11-05T12:38:46.569Z,50.75
2022-11-05T12:41:31.544Z,50.77
2022-11-05T12:44:16.296Z,47.78
2022-11-05T12:47:01.204Z,46.88
2022-11-05T12:49:46.068Z,47.50
2022-11-05T12:52:31.033Z,45.00
2022-11-05T12:55:16.023Z,43.90
2022-11-05T12:58:00.915Z,42.93
2022-11-05T13:00:45.815Z,42.42
2022-11-05T13:03:30.721Z,43.13
2022-11-05T13:06:15.739Z,44.01
2022-11-05T13:09:00.472Z,44.23
2022-11-05T13:11:45.337Z,48.31
2022-11-05T13:14:30.011Z,45.70
2022-11-05T13:17:14.938Z,44.17
2022-11-05T13:19:59.866Z,43.31
2022-11-05T13:22:44.750Z,43.77
2022-11-05T13:25:29.762Z,45.20
2022-11-05T13:28:14.588Z,44.54
2022-11-05T13:30:59.550Z,42.98
2022-11-05T13:33:44.457Z,45.89
2022-11-05T13:36:29.332Z,45.28
2022-11-05T13:39:14.233Z,45.79
2022-11-05T13:41:59.140Z,46.14
2022-11-05T13:44:44.139Z,44.64
2022-11-05T13:47:29.122Z,44.07
2022-11-05T13:50:14.135Z,44.51
2022-11-05T13:52:58.988Z,43.91
2022-11-05T13:55:44.070Z,43.27
2022-11-05T13:58:28.910Z,43.62
2022-11-05T14:01:13.839Z,45.85
2022-11-05T14:03:58.730Z,44.35
2022-11-05T14:06:43.805Z,45.47
2022-11-05T14:09:29.088Z,44.66
2022-11-05T14:12:14.098Z,45.82
2022-11-05T14:14:59.354Z,44.48
2022-11-05T14:17:44.341Z,44.67
2022-11-05T14:20:29.162Z,42.89
2022-11-05T14:23:14.328Z,44.91
2022-11-05T14:25:59.491Z,44.70
2022-11-05T14:28:44.397Z,44.54
2022-11-05T14:31:47.208Z,43.42
2022-11-05T14:34:32.962Z,44.70
2022-11-05T14:37:17.714Z,45.58
2022-11-05T14:40:02.761Z,44.31
2022-11-05T14:42:47.678Z,44.59
2022-11-05T14:45:33.754Z,44.71
2022-11-05T14:48:18.924Z,44.14
2022-11-05T14:51:03.833Z,43.44
2022-11-05T14:53:48.784Z,43.78
2022-11-05T14:56:33.628Z,43.62
2022-11-05T14:59:18.508Z,45.35
2022-11-05T15:02:03.585Z,43.93
2022-11-05T15:04:48.764Z,43.20
2022-11-05T15:07:33.862Z,46.11
2022-11-05T15:10:18.760Z,45.18
2022-11-05T15:13:03.659Z,46.02
2022-11-05T15:15:48.607Z,44.87
2022-11-05T15:18:33.483Z,46.05
2022-11-05T15:21:18.412Z,45.93
2022-11-05T15:24:03.342Z,44.11
2022-11-05T15:26:48.202Z,47.37
2022-11-05T15:29:33.311Z,47.43
2022-11-05T15:32:18.287Z,48.23
2022-11-05T15:35:03.232Z,48.16
2022-11-05T15:37:53.428Z,48.27
2022-11-05T15:40:41.299Z,47.50
2022-11-05T15:43:26.310Z,47.37
2022-11-05T15:46:11.237Z,46.40
2022-11-05T15:48:56.081Z,47.81
2022-11-05T15:51:41.059Z,48.02
2022-11-05T15:54:30.574Z,47.16
2022-11-05T15:57:16.304Z,47.83
2022-11-05T16:00:01.262Z,48.99
2022-11-05T16:02:46.224Z,48.86
2022-11-05T16:05:31.455Z,48.99
2022-11-05T16:08:16.406Z,48.88
2022-11-05T16:11:01.238Z,48.70
2022-11-05T16:13:46.051Z,49.44
2022-11-05T16:16:31.082Z,48.21
2022-11-05T16:19:16.060Z,47.89
2022-11-05T16:22:00.909Z,49.37
2022-11-05T16:24:45.866Z,47.51
2022-11-05T16:27:30.774Z,48.82
2022-11-05T16:30:15.498Z,48.81
2022-11-05T16:33:00.455Z,47.79
2022-11-05T16:35:45.208Z,49.40
2022-11-05T16:38:30.138Z,48.99
2022-11-05T16:41:15.018Z,46.63
2022-11-05T16:43:59.936Z,46.24
2022-11-05T16:46:44.893Z,48.24
2022-11-05T16:49:29.902Z,47.67
2022-11-05T16:52:14.767Z,47.25
2022-11-05T16:54:59.680Z,47.50
2022-11-05T16:57:44.591Z,48.07
2022-11-05T17:00:29.459Z,47.86
2022-11-05T17:03:14.364Z,48.11
2022-11-05T17:05:59.235Z,47.97
2022-11-05T17:08:44.127Z,47.70
2022-11-05T17:11:28.959Z,46.83
2022-11-05T17:14:13.992Z,47.21
2022-11-05T17:16:58.882Z,48.31
2022-11-05T17:19:43.806Z,47.33
2022-11-05T17:22:28.639Z,47.99
2022-11-05T17:25:13.488Z,48.74
2022-11-05T17:27:58.478Z,48.12
2022-11-05T17:30:46.649Z,48.70
2022-11-05T17:33:35.887Z,48.15
2022-11-05T17:36:20.722Z,49.17
2022-11-05T17:39:05.700Z,48.96
2022-11-05T17:41:50.735Z,48.89
2022-11-05T17:44:35.576Z,50.57
2022-11-05T17:47:20.578Z,49.10
2022-11-05T17:50:05.549Z,48.08
2022-11-05T17:52:50.384Z,48.49
2022-11-05T17:55:35.305Z,48.70
2022-11-05T17:58:20.182Z,48.47
2022-11-05T18:01:05.263Z,48.23
2022-11-05T18:03:50.042Z,47.34
2022-11-05T18:06:35.009Z,47.96
2022-11-05T18:09:20.447Z,47.94
2022-11-05T18:12:05.424Z,46.81
2022-11-05T18:14:50.270Z,46.12
2022-11-05T18:17:35.161Z,46.69
2022-11-05T18:20:20.098Z,47.39
2022-11-05T18:23:04.928Z,46.42
2022-11-05T18:25:49.867Z,46.34
2022-11-05T18:28:34.775Z,46.38
2022-11-05T18:31:19.527Z,46.67
2022-11-05T18:34:04.563Z,47.05
2022-11-05T18:36:55.040Z,46.39
2022-11-05T18:39:41.320Z,47.97
2022-11-05T18:42:26.221Z,46.97
2022-11-05T18:45:11.069Z,47.36
2022-11-05T18:47:57.184Z,47.44
2022-11-05T18:50:42.660Z,47.24
2022-11-05T18:53:29.968Z,48.03
2022-11-05T18:56:15.091Z,46.80
2022-11-05T18:59:29.934Z,48.15
2022-11-05T19:02:05.118Z,47.93
2022-11-05T19:05:14.424Z,47.62
2022-11-05T19:07:55.686Z,47.34
2022-11-05T19:10:40.631Z,47.21
2022-11-05T19:13:25.682Z,46.56
2022-11-05T19:16:10.478Z,46.94
2022-11-05T19:18:55.486Z,46.38
2022-11-05T19:21:40.286Z,45.88
2022-11-05T19:24:25.057Z,46.77
2022-11-05T19:27:09.869Z,45.76
2022-11-05T19:29:54.819Z,45.65
2022-11-05T19:32:39.778Z,46.18
2022-11-05T19:35:24.704Z,47.79
2022-11-05T19:38:10.144Z,46.34
2022-11-05T19:40:55.720Z,46.68
2022-11-05T19:43:40.736Z,47.29
2022-11-05T19:46:25.556Z,47.67
2022-11-05T19:49:13.672Z,48.63
2022-11-05T19:51:58.726Z,48.20
2022-11-05T19:54:43.535Z,48.41
2022-11-05T19:57:28.593Z,46.33
2022-11-05T20:00:13.448Z,47.47
2022-11-05T20:02:58.591Z,47.66
2022-11-05T20:05:43.912Z,48.03
2022-11-05T20:08:28.750Z,47.83
2022-11-05T20:11:13.653Z,48.15
2022-11-05T20:13:58.562Z,47.90
2022-11-05T20:16:43.437Z,47.85
2022-11-05T20:19:28.256Z,47.93
2022-11-05T20:22:13.303Z,47.10
2022-11-05T20:24:58.136Z,49.31
2022-11-05T20:27:43.208Z,49.02
2022-11-05T20:30:28.148Z,47.84
2022-11-05T20:33:13.012Z,47.18
2022-11-05T20:35:57.863Z,46.75
2022-11-05T20:38:42.724Z,48.42
2022-11-05T20:41:27.654Z,48.17
2022-11-05T20:44:12.531Z,47.17
2022-11-05T20:46:57.453Z,47.44
2022-11-05T20:49:42.266Z,48.35
2022-11-05T20:52:26.944Z,46.95
2022-11-05T20:55:12.364Z,47.72
2022-11-05T20:57:57.306Z,46.14
2022-11-05T21:00:42.323Z,46.47
2022-11-05T21:03:27.244Z,46.64
2022-11-05T21:06:12.187Z,46.28
2022-11-05T21:08:57.063Z,47.49
2022-11-05T21:11:42.003Z,48.35
2022-11-05T21:14:26.867Z,47.45
2022-11-05T21:17:11.766Z,46.66
2022-11-05T21:19:56.657Z,48.21
2022-11-05T21:22:41.597Z,46.61
2022-11-05T21:25:26.451Z,47.54
2022-11-05T21:28:11.633Z,47.63
2022-11-05T21:30:57.172Z,47.37
2022-11-05T21:33:41.974Z,47.85
2022-11-05T21:36:27.178Z,49.03
2022-11-05T21:39:13.809Z,49.23
2022-11-05T21:41:58.751Z,49.08
2022-11-05T21:44:43.601Z,48.15
2022-11-05T21:47:28.541Z,47.71
2022-11-05T21:50:16.051Z,47.65
2022-11-05T21:53:03.397Z,49.19
2022-11-05T21:55:48.253Z,48.94
2022-11-05T21:58:33.298Z,49.07
2022-11-05T22:01:18.237Z,47.09
2022-11-05T22:04:03.566Z,47.61
2022-11-05T22:06:48.372Z,49.00
2022-11-05T22:09:33.158Z,49.71
2022-11-05T22:12:18.089Z,49.55
2022-11-05T22:15:02.946Z,50.09
2022-11-05T22:17:47.833Z,49.07
2022-11-05T22:20:32.726Z,48.84
2022-11-05T22:23:17.595Z,49.73
2022-11-05T22:26:02.467Z,49.25
2022-11-05T22:28:47.452Z,50.23
2022-11-05T22:31:36.218Z,51.80
2022-11-05T22:34:21.789Z,51.30
2022-11-05T22:37:06.707Z,50.43
2022-11-05T22:39:51.604Z,49.68
2022-11-05T22:42:36.624Z,50.20
2022-11-05T22:45:21.586Z,51.80
2022-11-05T22:48:06.997Z,51.12
2022-11-05T22:50:52.467Z,50.96
2022-11-05T22:53:37.559Z,52.13
2022-11-05T22:56:22.684Z,52.50
2022-11-05T22:59:07.756Z,52.45
2022-11-05T23:01:52.800Z,51.93
2022-11-05T23:05:14.532Z,52.98
2022-11-05T23:07:59.499Z,54.50
2022-11-05T23:10:44.599Z,55.13
2022-11-05T23:13:29.500Z,56.59
2022-11-05T23:16:14.522Z,57.90
2022-11-05T23:18:59.459Z,59.39
2022-11-05T23:21:44.423Z,56.98
2022-11-05T23:24:29.336Z,58.11
2022-11-05T23:27:14.304Z,57.69
2022-11-05T23:29:59.242Z,58.91
2022-11-05T23:32:44.103Z,58.08
2022-11-05T23:35:29.019Z,57.43
2022-11-05T23:38:14.117Z,59.23
2022-11-05T23:40:59.681Z,58.77
2022-11-05T23:43:44.661Z,58.18
2022-11-05T23:46:29.572Z,57.68
2022-11-05T23:49:14.666Z,57.82
2022-11-05T23:51:59.613Z,58.43
2022-11-05T23:54:44.717Z,57.82
2022-11-05T23:57:29.509Z,56.95
